KMTW/MTW METAR and TAF weather

Enter ICAO airport designator
Station Type Date Time Source
KMTW METAR 2021/09/20 04:46 UTC NOAA

KMTW 200446Z AUTO 09003KT 3/4SM BR CLR 17/17 A2999 RMK AO2 PNO $


Station Type Date Time Source
KMTW Decoded METAR 2021/09/20 04:46 UTC NOAA

Manitowoc, Manitowoc County Airport, WI, United States (KMTW) 44-08N 087-41W
Sep 20, 2021 - 12:46 AM EDT / 2021.09.20 0446 UTC
Wind: from the E (090 degrees) at 3 MPH (3 KT):0
Visibility: 3/4 mile(s):0
Sky conditions: clear
Weather: mist
Temperature: 62 F (17 C)
Dew Point: 62 F (17 C)
Relative Humidity: 100%
Pressure (altimeter): 29.99 in. Hg (1015 hPa)
ob: KMTW 200446Z AUTO 09003KT 3/4SM BR CLR 17/17 A2999 RMK AO2 PNO
cycle: 5

Station Type Date Time Source
KMTW TAF 2021/09/19 18:27 UTC NOAA

TAF KMTW 191725Z 1918/2018 17014G20KT P6SM SKC
FM200100 17010G16KT P6SM SKC
FM200300 17007KT P6SM SCT250
FM201400 17012KT P6SM BKN030
FM201500 17013G18KT P6SM -SHRA BKN020
FM201600 17014G21KT P6SM -SHRA BKN015

Example: see airport list